Terminal Aerodrome Forecast
Issued by NWS Wichita, KS

Home | Current Version | Previous Version | Text Only | Print | Product List | Glossary Off
Versions: 1 2 3 4 5 6 7 8 9 10 11 12 13 14 15 16 17 18 19 20 21 22 23 24

000
FTUS43 KICT 240154 AAB
TAFICT
TAF AMD
KICT 240154Z 2402/2424 04010KT 3SM -DZ OVC006
      TEMPO 2410/2414 07004KT 1/2SM FG OVC002
     FM241900 21009KT P6SM BKN008
     FM242100 27012KT P6SM BKN030
     FM242200 28012KT P6SM SCT090=

USA.gov is the U.S. government's official web portal to all federal, state and local government web resources and services.